Gorjacinsk, Russia
Current Conditions -  °F | °C
As of 4:30 PM on Thursday 23 Oct 2014 (Local Time) from UIUU Reporting Station
Overcast Overcast  
Wind Chill: 35°   Ceiling: 10000
Heat Index: 41°   Visibility: 6mi
Dew Point: 28°   Wind: 9mph
Humidity: 61%   Direction: 290°WNW
Pressure: 29.83"   Gusts: NA
Location:  52.98°N, 108.28°E
Report Text: UIUU 230830Z 29004MPS 9999 SCT040CB OVC100 05/M02 Q1010 NOSIGRMK QFE714/0952 26CLRD60
Loading
Personal Weather Stations






























Interactive Weather Map
Tropical Storm Tracking
New forecast layout! Learn more

10-Day Weather Forecast

Advertisements
Track Severe Weather on mobile